Time;durP1;ratioP1;P1;durP2;ratioP2;P2;SDS_P1;SDS_P2;PMS_P1;PMS_P2;Temp;Humidity;BMP_temperature;BMP_pressure;BME280_temperature;BME280_humidity;BME280_pressure;Samples;Min_cycle;Max_cycle;Signal;HPM_P1;HPM_P2
2021/04/06 00:00:10;;;;;;;;;;;;;;;3.31;71.21;101099.94;5059571;28;19924;-78
2021/04/06 00:02:36;;;;;;;;;;;;;;;3.31;71.09;101105.44;5096724;28;19916;-78
2021/04/06 00:05:02;;;;;;;;;;;;;;;3.30;70.93;101103.75;5077323;28;20543;-78
2021/04/06 00:07:28;;;;;;;;;;;;;;;3.17;71.49;101095.69;5069662;28;19950;-78
2021/04/06 00:09:54;;;;;;;;;;;;;;;3.13;71.16;101102.72;5060232;28;19965;-79
2021/04/06 00:12:19;;;;;;;;;;;;;;;3.13;71.30;101105.47;5093940;28;19920;-78
2021/04/06 00:14:45;;;;;;;;;;;;;;;3.04;71.17;101107.69;5056938;28;19978;-79
2021/04/06 00:17:11;;;;;;;;;;;;;;;2.97;71.36;101108.84;5062776;28;19920;-79
2021/04/06 00:19:37;;;;;;;;;;;;;;;2.91;71.29;101111.41;5074339;28;19916;-78
2021/04/06 00:22:03;;;;;;;;;;;;;;;2.86;71.23;101107.69;5072688;28;20400;-79
2021/04/06 00:24:29;;;;;;;;;;;;;;;2.82;71.28;101106.47;5074098;28;19939;-79
2021/04/06 00:26:55;;;;;;;;;;;;;;;2.74;71.13;101104.88;5076495;28;19920;-78
2021/04/06 00:29:22;;;;;;;;;;;;;;;2.69;71.51;101101.97;5078949;28;19923;-79
2021/04/06 00:31:48;;;;;;;;;;;;;;;2.63;71.65;101103.72;5060866;28;19916;-78
2021/04/06 00:34:14;;;;;;;;;;;;;;;2.57;71.43;101095.56;5096304;28;20338;-79
2021/04/06 00:36:39;;;;;;;;;;;;;;;2.56;71.79;101094.72;5095651;28;19916;-78
2021/04/06 00:39:04;;;;;;;;;;;;;;;2.49;71.60;101104.09;5059670;28;19923;-78
2021/04/06 00:41:30;;;;;;;;;;;;;;;2.43;71.51;101103.91;5078245;28;19934;-78
2021/04/06 00:43:55;;;;;;;;;;;;;;;2.42;71.46;101106.88;5059710;28;19923;-78
2021/04/06 00:46:21;;;;;;;;;;;;;;;2.35;71.72;101098.72;5074676;28;19924;-78
2021/04/06 00:48:47;;;;;;;;;;;;;;;2.30;71.86;101105.94;5077536;28;20007;-79
2021/04/06 00:51:13;;;;;;;;;;;;;;;2.20;71.83;101098.22;5075712;28;19923;-78
2021/04/06 00:53:48;;;;;;;;;;;;;;;2.22;71.74;101102.41;5072976;28;19916;-78
2021/04/06 00:56:13;;;;;;;;;;;;;;;2.14;71.89;101097.22;5085194;28;19912;-79
2021/04/06 00:58:41;;;;;;;;;;;;;;;2.07;72.13;101095.63;5072813;28;19965;-79
2021/04/06 01:01:07;;;;;;;;;;;;;;;2.06;71.96;101102.13;5091701;28;19931;-79
2021/04/06 01:03:33;;;;;;;;;;;;;;;1.99;71.88;101094.81;5072837;28;19966;-78
2021/04/06 01:05:58;;;;;;;;;;;;;;;1.99;71.83;101097.56;5059215;28;19924;-82
2021/04/06 01:08:35;;;;;;;;;;;;;;;1.91;72.30;101097.00;5075564;28;19977;-79
2021/04/06 01:11:00;;;;;;;;;;;;;;;1.87;72.29;101099.34;5071909;28;19924;-79
2021/04/06 01:13:26;;;;;;;;;;;;;;;1.86;72.33;101103.13;5094125;28;20010;-78
2021/04/06 01:15:51;;;;;;;;;;;;;;;1.87;71.78;101098.50;5077549;28;19916;-78
2021/04/06 01:18:17;;;;;;;;;;;;;;;1.77;71.76;101108.03;5077831;28;19948;-79
2021/04/06 01:20:42;;;;;;;;;;;;;;;1.75;72.22;101106.56;5077008;28;19950;-79
2021/04/06 01:23:09;;;;;;;;;;;;;;;1.74;72.13;101100.28;5072369;28;20386;-79
2021/04/06 01:25:34;;;;;;;;;;;;;;;1.63;72.48;101106.44;5075879;28;19984;-81
2021/04/06 01:28:03;;;;;;;;;;;;;;;1.60;72.63;101106.06;5054936;28;20018;-78
2021/04/06 01:30:43;;;;;;;;;;;;;;;1.62;72.44;101101.22;5095809;28;20382;-78
2021/04/06 01:33:09;;;;;;;;;;;;;;;1.50;72.38;101104.63;5070027;28;19917;-79
2021/04/06 01:35:35;;;;;;;;;;;;;;;1.47;72.46;101106.97;5072129;28;20424;-79
2021/04/06 01:38:00;;;;;;;;;;;;;;;1.45;72.70;101109.94;5093203;28;19959;-78
2021/04/06 01:40:25;;;;;;;;;;;;;;;1.45;72.55;101107.22;5076497;28;20008;-78
2021/04/06 01:42:51;;;;;;;;;;;;;;;1.42;72.95;101099.44;5074210;28;19917;-78
2021/04/06 01:45:17;;;;;;;;;;;;;;;1.40;72.22;101101.53;5094365;28;19982;-78
2021/04/06 01:47:43;;;;;;;;;;;;;;;1.40;72.47;101103.44;5069594;28;19928;-78
2021/04/06 01:50:08;;;;;;;;;;;;;;;1.33;72.70;101103.47;5071500;28;19916;-78
2021/04/06 01:52:33;;;;;;;;;;;;;;;1.28;72.60;101106.00;5070686;28;20443;-78
2021/04/06 01:55:06;;;;;;;;;;;;;;;1.29;72.64;101096.75;5068455;28;19916;-78
2021/04/06 01:57:38;;;;;;;;;;;;;;;1.24;72.67;101093.84;5087848;28;20265;-79
2021/04/06 02:00:15;;;;;;;;;;;;;;;1.20;72.64;101093.44;5075608;28;19912;-79
2021/04/06 02:02:42;;;;;;;;;;;;;;;1.18;72.79;101097.44;5074626;28;19920;-78
2021/04/06 02:05:10;;;;;;;;;;;;;;;1.13;72.50;101095.34;5075956;28;19995;-79
2021/04/06 02:07:37;;;;;;;;;;;;;;;1.10;72.26;101102.09;5091246;28;19916;-78
2021/04/06 02:10:04;;;;;;;;;;;;;;;1.09;72.62;101105.91;5059025;28;20305;-79
2021/04/06 02:12:30;;;;;;;;;;;;;;;1.07;72.47;101102.53;5092711;28;19920;-78
2021/04/06 02:14:58;;;;;;;;;;;;;;;0.98;73.03;101105.75;5076609;28;19920;-78
2021/04/06 02:17:24;;;;;;;;;;;;;;;0.95;73.01;101097.94;5078459;28;19916;-78
2021/04/06 02:19:49;;;;;;;;;;;;;;;0.96;72.99;101105.13;5070674;28;20452;-78
2021/04/06 02:22:15;;;;;;;;;;;;;;;0.94;72.93;101105.31;5075444;28;19919;-79
2021/04/06 02:24:49;;;;;;;;;;;;;;;0.94;72.77;101105.31;5076409;28;19919;-78
2021/04/06 02:27:21;;;;;;;;;;;;;;;0.89;72.54;101108.72;5079102;28;19924;-79
2021/04/06 02:29:51;;;;;;;;;;;;;;;0.92;72.83;101101.13;5079578;28;19916;-79
2021/04/06 02:32:17;;;;;;;;;;;;;;;0.88;72.68;101107.03;5078976;28;19912;-78
2021/04/06 02:34:46;;;;;;;;;;;;;;;0.82;72.62;101104.31;5098384;28;20328;-78
2021/04/06 02:37:24;;;;;;;;;;;;;;;0.81;72.81;101099.91;5097869;28;19922;-79
2021/04/06 02:39:50;;;;;;;;;;;;;;;0.76;72.63;101102.44;5056046;28;19916;-79
2021/04/06 02:42:25;;;;;;;;;;;;;;;0.75;72.57;101106.22;5061527;28;20362;-79
2021/04/06 02:44:55;;;;;;;;;;;;;;;0.73;72.68;101108.34;5098510;28;19919;-78
2021/04/06 02:47:21;;;;;;;;;;;;;;;0.71;73.04;101105.81;5094399;28;19924;-79
2021/04/06 02:49:46;;;;;;;;;;;;;;;0.66;72.93;101105.63;5098179;28;19965;-78
2021/04/06 02:52:12;;;;;;;;;;;;;;;0.65;72.81;101107.50;5079819;28;19943;-79
2021/04/06 02:54:38;;;;;;;;;;;;;;;0.64;72.88;101105.84;5096781;28;19920;-78
2021/04/06 02:57:22;;;;;;;;;;;;;;;0.63;73.11;101103.31;5077135;28;19942;-78
2021/04/06 02:59:48;;;;;;;;;;;;;;;0.62;72.81;101102.47;5077331;28;19919;-78
2021/04/06 03:02:13;;;;;;;;;;;;;;;0.60;73.11;101110.03;5079968;28;20448;-78
2021/04/06 03:04:45;;;;;;;;;;;;;;;0.59;73.02;101102.06;5062923;28;20403;-78
2021/04/06 03:07:17;;;;;;;;;;;;;;;0.57;72.66;101104.19;5073405;28;19929;-78
2021/04/06 03:09:56;;;;;;;;;;;;;;;0.52;72.75;101104.81;5078310;28;19916;-78
2021/04/06 03:12:25;;;;;;;;;;;;;;;0.47;72.95;101104.59;5097567;28;19947;-78
2021/04/06 03:14:50;;;;;;;;;;;;;;;0.45;72.85;101095.78;5096801;28;19916;-78
2021/04/06 03:17:16;;;;;;;;;;;;;;;0.43;72.89;101097.91;5098127;28;20407;-78
2021/04/06 03:19:42;;;;;;;;;;;;;;;0.39;72.82;101102.94;5058682;28;19919;-78
2021/04/06 03:22:07;;;;;;;;;;;;;;;0.39;73.04;101093.88;5080058;28;19963;-78
2021/04/06 03:24:32;;;;;;;;;;;;;;;0.38;73.01;101111.34;5063237;28;19962;-78
2021/04/06 03:27:01;;;;;;;;;;;;;;;0.38;73.26;101111.34;5076284;28;19920;-78
2021/04/06 03:29:27;;;;;;;;;;;;;;;0.36;73.41;101106.13;5063241;28;19923;-78
2021/04/06 03:31:53;;;;;;;;;;;;;;;0.31;73.03;101103.16;5096892;28;20275;-79
2021/04/06 03:34:18;;;;;;;;;;;;;;;0.33;73.11;101101.03;5076639;28;19916;-78
2021/04/06 03:36:44;;;;;;;;;;;;;;;0.29;73.14;101101.69;5062835;28;19923;-78
2021/04/06 03:39:10;;;;;;;;;;;;;;;0.32;73.28;101106.75;5062301;28;20357;-78
2021/04/06 03:41:35;;;;;;;;;;;;;;;0.25;73.25;101100.44;5057822;28;19923;-78
2021/04/06 03:44:06;;;;;;;;;;;;;;;0.27;73.47;101109.25;5079312;28;19920;-78
2021/04/06 03:46:32;;;;;;;;;;;;;;;0.24;73.10;101101.50;5079026;28;19966;-79
2021/04/06 03:49:14;;;;;;;;;;;;;;;0.20;73.09;101099.19;5076898;28;21339;-79
2021/04/06 03:51:52;;;;;;;;;;;;;;;0.16;73.12;101091.59;5096922;28;19970;-79
2021/04/06 03:54:39;;;;;;;;;;;;;;;0.16;73.30;101097.06;5077981;28;19912;-78
2021/04/06 03:57:45;;;;;;;;;;;;;;;0.15;73.15;101100.88;5045197;28;19916;-79
2021/04/06 04:00:11;;;;;;;;;;;;;;;0.14;73.55;101107.38;5051076;28;19982;-79
2021/04/06 04:02:36;;;;;;;;;;;;;;;0.10;73.33;101104.22;5090918;28;19957;-79
2021/04/06 04:05:02;;;;;;;;;;;;;;;0.13;73.41;101095.59;5079322;28;19912;-78
2021/04/06 04:07:27;;;;;;;;;;;;;;;0.08;73.16;101094.56;5077544;28;19924;-79
2021/04/06 04:09:53;;;;;;;;;;;;;;;0.06;73.15;101108.44;5076427;28;19923;-78
2021/04/06 04:12:18;;;;;;;;;;;;;;;0.05;73.58;101105.91;5079227;28;19917;-78
2021/04/06 04:14:43;;;;;;;;;;;;;;;0.03;73.59;101108.00;5076211;28;20362;-79
2021/04/06 04:17:09;;;;;;;;;;;;;;;-0.09;73.82;101100.44;5096586;28;19916;-78
2021/04/06 04:19:35;;;;;;;;;;;;;;;-0.04;73.52;101097.09;5074749;28;19995;-78
2021/04/06 04:22:00;;;;;;;;;;;;;;;-0.07;73.51;101098.34;5095401;28;19966;-79
2021/04/06 04:24:25;;;;;;;;;;;;;;;-0.10;73.69;101108.84;5061559;28;19931;-79
2021/04/06 04:26:51;;;;;;;;;;;;;;;-0.13;73.63;101109.28;5093164;28;19928;-78
2021/04/06 04:29:16;;;;;;;;;;;;;;;-0.18;73.43;101107.16;5075402;28;20012;-77
2021/04/06 04:31:44;;;;;;;;;;;;;;;-0.21;73.50;101101.28;5096162;28;20686;-78
2021/04/06 04:34:10;;;;;;;;;;;;;;;-0.23;73.68;101104.19;5078746;28;19916;-78
2021/04/06 04:36:35;;;;;;;;;;;;;;;-0.26;73.94;101101.91;5075657;28;19916;-79
2021/04/06 04:39:01;;;;;;;;;;;;;;;-0.25;74.01;101111.78;5061248;28;19912;-78
2021/04/06 04:41:26;;;;;;;;;;;;;;;-0.30;74.06;101104.22;5095404;28;19916;-79
2021/04/06 04:43:51;;;;;;;;;;;;;;;-0.31;73.57;101107.13;5092658;28;19916;-80
2021/04/06 04:46:17;;;;;;;;;;;;;;;-0.34;73.78;101102.94;5094472;28;20273;-79
2021/04/06 04:48:42;;;;;;;;;;;;;;;-0.34;73.82;101104.81;5094419;28;19965;-78
2021/04/06 04:51:07;;;;;;;;;;;;;;;-0.36;73.67;101105.03;5094927;28;20019;-79
2021/04/06 04:53:32;;;;;;;;;;;;;;;-0.35;73.92;101111.34;5053209;28;19968;-78
2021/04/06 04:55:58;;;;;;;;;;;;;;;-0.38;73.92;101107.13;5066017;28;19922;-78
2021/04/06 04:58:23;;;;;;;;;;;;;;;-0.36;74.14;101115.09;5073960;28;19923;-78
2021/04/06 05:00:48;;;;;;;;;;;;;;;-0.39;74.04;101120.97;5093472;28;19911;-78
2021/04/06 05:03:14;;;;;;;;;;;;;;;-0.42;74.12;101124.94;5078377;28;19923;-81
2021/04/06 05:05:39;;;;;;;;;;;;;;;-0.38;73.92;101120.78;5057658;28;19916;-81
2021/04/06 05:08:04;;;;;;;;;;;;;;;-0.43;74.50;101126.00;5060948;28;19912;-79
2021/04/06 05:10:30;;;;;;;;;;;;;;;-0.43;74.33;101120.56;5056097;28;20372;-78
2021/04/06 05:12:55;;;;;;;;;;;;;;;-0.45;74.40;101130.81;5095673;28;19969;-78
2021/04/06 05:15:20;;;;;;;;;;;;;;;-0.46;74.14;101129.16;5094778;28;19959;-78
2021/04/06 05:17:46;;;;;;;;;;;;;;;-0.47;74.24;101125.59;5044371;28;20022;-78
2021/04/06 05:20:11;;;;;;;;;;;;;;;-0.52;74.08;101119.91;5076276;28;19916;-79
2021/04/06 05:22:36;;;;;;;;;;;;;;;-0.55;74.34;101124.94;5041944;28;19957;-78
2021/04/06 05:25:03;;;;;;;;;;;;;;;-0.54;74.38;101126.63;5078226;28;19916;-78
2021/04/06 05:27:28;;;;;;;;;;;;;;;-0.54;74.26;101121.16;5059428;28;20376;-78
2021/04/06 05:29:53;;;;;;;;;;;;;;;-0.56;74.36;101134.16;5075680;28;19912;-78
2021/04/06 05:32:19;;;;;;;;;;;;;;;-0.57;74.40;101125.13;5061201;28;19916;-78
2021/04/06 05:34:44;;;;;;;;;;;;;;;-0.59;74.26;101120.94;5077392;28;19923;-79
2021/04/06 05:37:09;;;;;;;;;;;;;;;-0.59;74.72;101127.22;5059619;28;19912;-78
2021/04/06 05:39:35;;;;;;;;;;;;;;;-0.63;74.34;101125.13;5054661;28;19916;-79
2021/04/06 05:42:00;;;;;;;;;;;;;;;-0.65;74.86;101122.59;5042433;28;19920;-78
2021/04/06 05:44:25;;;;;;;;;;;;;;;-0.64;74.52;101131.59;5074846;28;19917;-78
2021/04/06 05:46:51;;;;;;;;;;;;;;;-0.67;74.51;101132.84;5055593;28;19927;-78
2021/04/06 05:49:24;;;;;;;;;;;;;;;-0.63;74.61;101133.31;5071254;28;20015;-78
2021/04/06 05:51:49;;;;;;;;;;;;;;;-0.68;74.48;101140.22;5094452;28;19923;-78
2021/04/06 05:54:15;;;;;;;;;;;;;;;-0.68;74.54;101136.66;5080687;28;19916;-78
2021/04/06 05:56:40;;;;;;;;;;;;;;;-0.65;74.40;101140.84;5080194;28;20388;-78
2021/04/06 05:59:05;;;;;;;;;;;;;;;-0.59;74.71;101142.75;5072446;28;20316;-78
2021/04/06 06:01:31;;;;;;;;;;;;;;;-0.43;76.82;101142.38;5061057;28;19920;-79
2021/04/06 06:03:57;;;;;;;;;;;;;;;-0.24;77.69;101147.03;5074388;28;19924;-79
2021/04/06 06:06:22;;;;;;;;;;;;;;;-0.07;77.99;101142.03;5051491;28;19920;-81
2021/04/06 06:08:51;;;;;;;;;;;;;;;0.10;78.09;101142.47;5099825;28;19923;-78
2021/04/06 06:11:17;;;;;;;;;;;;;;;0.28;77.48;101147.31;5091741;28;19920;-80
2021/04/06 06:13:42;;;;;;;;;;;;;;;0.41;77.39;101143.72;5077316;28;19924;-78
2021/04/06 06:16:08;;;;;;;;;;;;;;;0.55;77.15;101139.91;5075531;28;19955;-79
2021/04/06 06:18:50;;;;;;;;;;;;;;;0.70;76.83;101141.56;5055013;28;19955;-78
2021/04/06 06:21:18;;;;;;;;;;;;;;;0.83;76.63;101136.91;5076550;28;19916;-79
2021/04/06 06:23:43;;;;;;;;;;;;;;;0.96;76.16;101138.78;5079927;28;19912;-78
2021/04/06 06:26:12;;;;;;;;;;;;;;;1.05;75.89;101140.22;5077115;28;19920;-80
2021/04/06 06:28:37;;;;;;;;;;;;;;;1.19;75.69;101134.69;5096302;28;19962;-79
2021/04/06 06:31:03;;;;;;;;;;;;;;;1.29;75.52;101129.59;5081225;28;19924;-77
2021/04/06 06:33:29;;;;;;;;;;;;;;;1.34;75.51;101132.53;5080611;28;19924;-77
2021/04/06 06:35:58;;;;;;;;;;;;;;;1.42;75.16;101128.69;5095746;28;19916;-77
2021/04/06 06:38:24;;;;;;;;;;;;;;;1.52;75.02;101135.38;5098896;28;19920;-77
2021/04/06 06:40:51;;;;;;;;;;;;;;;1.64;74.44;101126.44;5061571;28;19923;-78
2021/04/06 06:43:17;;;;;;;;;;;;;;;1.77;74.30;101137.34;5079061;28;19916;-78
2021/04/06 06:45:42;;;;;;;;;;;;;;;1.91;74.40;101138.09;5063567;28;19927;-77
2021/04/06 06:48:08;;;;;;;;;;;;;;;2.04;74.54;101143.47;5098655;28;19920;-77
2021/04/06 06:50:49;;;;;;;;;;;;;;;2.22;74.07;101142.69;5078732;28;19916;-77
2021/04/06 06:53:14;;;;;;;;;;;;;;;2.41;73.66;101138.94;5078710;28;19923;-78
2021/04/06 06:55:39;;;;;;;;;;;;;;;2.62;72.85;101145.94;5079584;28;19913;-77
2021/04/06 06:58:05;;;;;;;;;;;;;;;2.84;72.41;101129.00;5078601;28;19995;-79
2021/04/06 07:00:30;;;;;;;;;;;;;;;3.03;72.02;101130.69;5046020;28;19920;-78
2021/04/06 07:02:56;;;;;;;;;;;;;;;3.21;71.19;101132.63;5098568;28;19923;-77
2021/04/06 07:05:25;;;;;;;;;;;;;;;3.37;71.17;101131.13;5093890;28;19977;-78
2021/04/06 07:07:53;;;;;;;;;;;;;;;3.52;71.12;101128.00;5080227;28;19923;-78
2021/04/06 07:10:19;;;;;;;;;;;;;;;3.67;70.54;101135.81;5097687;28;19920;-78
2021/04/06 07:12:45;;;;;;;;;;;;;;;3.78;70.24;101138.59;5079245;28;19920;-78
2021/04/06 07:15:10;;;;;;;;;;;;;;;3.89;70.02;101147.13;5078692;28;19916;-78
2021/04/06 07:17:36;;;;;;;;;;;;;;;3.96;69.46;101145.94;5062485;28;19912;-80
2021/04/06 07:20:01;;;;;;;;;;;;;;;4.02;69.25;101147.75;5094523;28;19970;-77
2021/04/06 07:22:26;;;;;;;;;;;;;;;4.07;68.90;101141.56;5079980;28;19916;-77
2021/04/06 07:24:52;;;;;;;;;;;;;;;4.10;68.73;101152.06;5077686;28;19959;-77
2021/04/06 07:27:17;;;;;;;;;;;;;;;4.15;68.70;101154.97;5077641;28;19951;-77
2021/04/06 07:29:42;;;;;;;;;;;;;;;4.19;68.77;101156.16;5059161;28;19967;-77
2021/04/06 07:32:11;;;;;;;;;;;;;;;4.22;68.43;101161.19;5092056;28;19916;-78
2021/04/06 07:34:38;;;;;;;;;;;;;;;4.25;68.61;101159.88;5071606;28;19916;-77
2021/04/06 07:37:04;;;;;;;;;;;;;;;4.27;68.61;101159.66;5048411;28;19961;-77
2021/04/06 07:39:29;;;;;;;;;;;;;;;4.31;68.51;101163.59;5078379;28;20029;-77
2021/04/06 07:41:54;;;;;;;;;;;;;;;4.33;67.67;101162.28;5077344;28;20011;-77
2021/04/06 07:44:20;;;;;;;;;;;;;;;4.36;67.84;101167.31;5061943;28;20356;-78
2021/04/06 07:46:46;;;;;;;;;;;;;;;4.37;67.78;101157.97;5051620;28;19928;-79
2021/04/06 07:49:20;;;;;;;;;;;;;;;4.41;67.67;101158.34;5078562;28;19951;-78
2021/04/06 07:51:46;;;;;;;;;;;;;;;4.45;67.36;101154.03;5092474;28;19968;-78
2021/04/06 07:54:15;;;;;;;;;;;;;;;4.48;67.41;101148.91;5075280;28;19920;-78
2021/04/06 07:56:48;;;;;;;;;;;;;;;4.52;66.86;101154.78;5095856;28;19923;-78
2021/04/06 07:59:20;;;;;;;;;;;;;;;4.55;66.74;101154.28;5095628;28;19912;-78
2021/04/06 08:01:47;;;;;;;;;;;;;;;4.62;66.80;101157.75;5074764;28;20406;-78
2021/04/06 08:04:12;;;;;;;;;;;;;;;4.68;66.94;101158.69;5096038;28;19923;-78
2021/04/06 08:06:50;;;;;;;;;;;;;;;4.74;66.76;101157.78;5095736;28;19983;-77
2021/04/06 08:12:06;;;;;;;;;;;;;;;4.83;66.44;101158.25;5093077;28;20359;-77
2021/04/06 08:14:36;;;;;;;;;;;;;;;4.87;66.55;101159.41;5077109;28;20014;-77
2021/04/06 08:17:20;;;;;;;;;;;;;;;4.92;66.54;101157.63;5074928;28;19921;-78
2021/04/06 08:19:49;;;;;;;;;;;;;;;4.96;66.39;101162.63;5092291;28;19920;-78
2021/04/06 08:22:17;;;;;;;;;;;;;;;4.99;65.47;101162.19;5095449;28;20537;-78
2021/04/06 08:24:43;;;;;;;;;;;;;;;4.99;64.72;101156.69;5076690;28;19917;-78
2021/04/06 08:27:27;;;;;;;;;;;;;;;5.02;65.13;101165.28;5093967;28;19916;-78
2021/04/06 08:30:10;;;;;;;;;;;;;;;5.05;64.60;101153.78;5095722;28;19916;-78
2021/04/06 08:32:36;;;;;;;;;;;;;;;5.04;64.20;101152.13;5075635;28;19922;-78
2021/04/06 08:35:01;;;;;;;;;;;;;;;5.08;64.65;101167.06;5095841;28;19943;-78
2021/04/06 08:37:37;;;;;;;;;;;;;;;5.11;64.64;101152.81;5073169;28;19923;-78
2021/04/06 08:40:06;;;;;;;;;;;;;;;5.17;64.98;101155.69;5062358;28;19923;-77
2021/04/06 08:42:32;;;;;;;;;;;;;;;5.21;65.10;101154.09;5073387;28;19913;-77
2021/04/06 08:44:58;;;;;;;;;;;;;;;5.28;64.71;101161.16;5066331;28;19927;-78
2021/04/06 08:47:43;;;;;;;;;;;;;;;5.32;64.49;101164.25;5073472;28;20280;-78
2021/04/06 08:50:09;;;;;;;;;;;;;;;5.37;64.23;101165.19;5067811;28;19912;-78
2021/04/06 08:52:35;;;;;;;;;;;;;;;5.42;63.49;101167.25;5053212;28;19940;-78
2021/04/06 08:55:11;;;;;;;;;;;;;;;5.46;63.03;101176.69;5075010;28;19920;-78
2021/04/06 08:57:36;;;;;;;;;;;;;;;5.53;63.09;101171.88;5075542;28;19920;-77
2021/04/06 09:00:14;;;;;;;;;;;;;;;5.52;61.50;101180.41;5068946;28;19916;-78
2021/04/06 09:02:40;;;;;;;;;;;;;;;5.56;61.61;101174.13;5071998;28;19917;-78
2021/04/06 09:05:05;;;;;;;;;;;;;;;5.60;62.40;101178.09;5074597;28;19955;-77
2021/04/06 09:07:32;;;;;;;;;;;;;;;5.64;62.33;101177.59;5073563;28;19924;-78
2021/04/06 09:09:58;;;;;;;;;;;;;;;5.68;62.59;101174.09;5076123;28;20279;-78
2021/04/06 09:12:26;;;;;;;;;;;;;;;5.73;62.46;101170.59;5073578;28;19927;-77
2021/04/06 09:14:52;;;;;;;;;;;;;;;5.73;59.83;101170.59;5075620;28;19920;-77
2021/04/06 09:17:17;;;;;;;;;;;;;;;5.80;60.52;101168.56;5074858;28;19961;-78
2021/04/06 09:19:43;;;;;;;;;;;;;;;5.87;59.72;101166.47;5055218;28;20004;-77
2021/04/06 09:22:11;;;;;;;;;;;;;;;5.95;61.21;101171.63;5075469;28;20356;-77
2021/04/06 09:24:37;;;;;;;;;;;;;;;6.09;61.46;101174.91;5034124;28;19997;-78
2021/04/06 09:27:03;;;;;;;;;;;;;;;6.33;59.52;101172.03;5073432;28;19921;-78
2021/04/06 09:29:37;;;;;;;;;;;;;;;6.59;58.40;101165.81;5076333;28;19912;-77
2021/04/06 09:32:07;;;;;;;;;;;;;;;6.73;57.83;101169.06;5073895;28;20429;-78
2021/04/06 09:34:35;;;;;;;;;;;;;;;6.91;58.21;101166.06;5057330;28;19916;-78
2021/04/06 09:37:21;;;;;;;;;;;;;;;7.06;59.03;101159.06;5073760;28;20119;-78
2021/04/06 09:39:47;;;;;;;;;;;;;;;7.19;58.13;101150.44;5077699;28;19978;-78
2021/04/06 09:42:12;;;;;;;;;;;;;;;7.27;55.81;101149.13;5073323;28;19916;-78
2021/04/06 09:44:40;;;;;;;;;;;;;;;7.37;57.15;101152.84;5058622;28;20341;-78
2021/04/06 09:47:06;;;;;;;;;;;;;;;7.45;56.64;101153.50;5054301;28;20432;-78
2021/04/06 09:49:33;;;;;;;;;;;;;;;7.48;57.00;101147.47;5077432;28;19922;-77
2021/04/06 09:51:59;;;;;;;;;;;;;;;7.58;56.19;101142.06;5093995;28;19912;-77
2021/04/06 09:54:25;;;;;;;;;;;;;;;7.65;56.33;101141.84;5092592;28;19939;-78
2021/04/06 09:56:50;;;;;;;;;;;;;;;7.75;56.64;101125.38;5047247;28;19948;-77
2021/04/06 09:59:16;;;;;;;;;;;;;;;7.83;56.49;101134.03;5056865;28;19923;-78
2021/04/06 10:01:41;;;;;;;;;;;;;;;7.89;53.21;101136.88;5059763;28;19912;-78
2021/04/06 10:04:07;;;;;;;;;;;;;;;8.04;53.65;101125.94;5073366;28;19923;-77
2021/04/06 10:06:33;;;;;;;;;;;;;;;8.16;54.02;101125.75;5093265;28;19923;-78
2021/04/06 10:08:58;;;;;;;;;;;;;;;8.28;52.76;101124.50;5076272;28;19916;-77
2021/04/06 10:11:24;;;;;;;;;;;;;;;8.40;53.20;101127.13;5063328;28;19916;-78
2021/04/06 10:13:50;;;;;;;;;;;;;;;8.51;50.98;101114.19;5094966;28;19964;-78
2021/04/06 10:16:19;;;;;;;;;;;;;;;8.48;50.01;101123.03;5096282;28;20272;-78
2021/04/06 10:18:45;;;;;;;;;;;;;;;8.54;49.26;101115.59;5094564;28;19919;-78
2021/04/06 10:21:22;;;;;;;;;;;;;;;8.62;49.97;101109.56;5075636;28;19959;-78
2021/04/06 10:23:47;;;;;;;;;;;;;;;8.50;50.87;101109.78;5094998;28;19923;-77
2021/04/06 10:26:17;;;;;;;;;;;;;;;8.46;50.56;101106.69;5072406;28;19917;-78
2021/04/06 10:28:42;;;;;;;;;;;;;;;8.45;49.77;101116.09;5060410;28;19920;-78
2021/04/06 10:31:08;;;;;;;;;;;;;;;8.26;50.14;101121.16;5076083;28;19919;-78
2021/04/06 10:33:34;;;;;;;;;;;;;;;8.22;51.07;101108.97;5073996;28;19916;-78
2021/04/06 10:36:03;;;;;;;;;;;;;;;8.05;50.73;101111.00;5080091;28;19920;-77
2021/04/06 10:38:29;;;;;;;;;;;;;;;8.17;52.03;101110.84;5096255;28;20291;-78
2021/04/06 10:41:01;;;;;;;;;;;;;;;8.27;52.40;101111.78;5079816;28;19918;-77
2021/04/06 10:43:27;;;;;;;;;;;;;;;8.32;51.98;101097.13;5098807;28;19922;-78
2021/04/06 10:45:57;;;;;;;;;;;;;;;8.40;52.87;101104.16;5073624;28;20400;-78
2021/04/06 10:48:23;;;;;;;;;;;;;;;8.46;52.70;101097.53;5075026;28;19921;-77
2021/04/06 10:50:50;;;;;;;;;;;;;;;8.52;53.18;101099.25;5044239;28;19959;-77
2021/04/06 10:53:15;;;;;;;;;;;;;;;8.58;53.33;101089.91;5071716;28;19920;-78
2021/04/06 10:55:41;;;;;;;;;;;;;;;8.62;51.77;101107.63;5077411;28;19981;-77
2021/04/06 10:58:06;;;;;;;;;;;;;;;8.53;48.54;101106.47;5073410;28;19917;-78
2021/04/06 11:00:32;;;;;;;;;;;;;;;8.51;47.93;101103.13;5075113;28;19958;-77
2021/04/06 11:03:17;;;;;;;;;;;;;;;8.52;49.32;101092.88;5076217;28;19965;-77
2021/04/06 11:05:43;;;;;;;;;;;;;;;8.33;48.58;101098.81;5055811;28;19970;-77
2021/04/06 11:08:18;;;;;;;;;;;;;;;8.32;48.33;101091.59;5076750;28;19916;-77
2021/04/06 11:10:44;;;;;;;;;;;;;;;8.40;48.14;101107.75;5074944;28;19920;-77
2021/04/06 11:13:09;;;;;;;;;;;;;;;8.40;48.52;101076.47;5055567;28;20312;-78
2021/04/06 11:15:34;;;;;;;;;;;;;;;8.45;49.07;101093.13;5077022;28;20403;-77
2021/04/06 11:18:00;;;;;;;;;;;;;;;8.31;49.27;101084.41;5076423;28;19924;-77
2021/04/06 11:20:26;;;;;;;;;;;;;;;8.34;50.43;101080.28;5077286;28;19913;-78
2021/04/06 11:22:52;;;;;;;;;;;;;;;8.24;49.55;101083.78;5074709;28;19920;-77
2021/04/06 11:25:17;;;;;;;;;;;;;;;8.36;50.09;101076.16;5075327;28;20374;-77
2021/04/06 11:27:42;;;;;;;;;;;;;;;8.46;48.54;101058.78;5075385;28;19942;-77
2021/04/06 11:30:08;;;;;;;;;;;;;;;8.49;48.12;101063.78;5074085;28;19916;-77
2021/04/06 11:32:33;;;;;;;;;;;;;;;8.51;45.86;101058.81;5058413;28;19916;-77
2021/04/06 11:34:59;;;;;;;;;;;;;;;8.61;47.18;101038.66;5078213;28;19912;-77
2021/04/06 11:37:24;;;;;;;;;;;;;;;8.80;46.82;101047.34;5073311;28;19991;-78
2021/04/06 11:39:50;;;;;;;;;;;;;;;8.98;45.95;101040.53;5077416;28;19912;-77
2021/04/06 11:42:15;;;;;;;;;;;;;;;9.16;47.05;101051.97;5074976;28;19916;-78
2021/04/06 11:44:41;;;;;;;;;;;;;;;9.27;46.29;101050.03;5076446;28;19916;-78
2021/04/06 11:47:06;;;;;;;;;;;;;;;9.35;45.99;101046.75;5073470;28;19921;-77
2021/04/06 11:49:32;;;;;;;;;;;;;;;9.45;45.91;101057.03;5073705;28;20023;-77
2021/04/06 11:51:57;;;;;;;;;;;;;;;9.48;47.66;101048.19;5065434;28;19948;-78
2021/04/06 11:54:23;;;;;;;;;;;;;;;9.54;46.97;101047.06;5077454;28;19919;-77
2021/04/06 11:56:48;;;;;;;;;;;;;;;9.58;47.02;101050.13;5072732;28;19916;-77
2021/04/06 11:59:14;;;;;;;;;;;;;;;9.66;47.22;101048.75;5072592;28;19916;-78
2021/04/06 12:01:39;;;;;;;;;;;;;;;9.76;48.64;101037.69;5074889;28;19916;-77
2021/04/06 12:04:04;;;;;;;;;;;;;;;9.90;47.63;101026.88;5036945;28;19924;-77
2021/04/06 12:06:30;;;;;;;;;;;;;;;9.95;46.61;101041.59;5068130;28;19921;-78
2021/04/06 12:08:55;;;;;;;;;;;;;;;10.03;47.18;101037.44;5073343;28;19979;-78
2021/04/06 12:11:20;;;;;;;;;;;;;;;10.07;46.79;101039.34;5076053;28;19932;-77
2021/04/06 12:13:46;;;;;;;;;;;;;;;9.94;47.23;101034.34;5077442;28;19940;-78
2021/04/06 12:16:11;;;;;;;;;;;;;;;9.91;46.91;101034.91;5072090;28;19921;-78
2021/04/06 12:18:37;;;;;;;;;;;;;;;9.90;47.26;101030.47;5074627;28;19916;-78
2021/04/06 12:21:03;;;;;;;;;;;;;;;9.88;47.34;101035.47;5075676;28;19920;-77
2021/04/06 12:23:28;;;;;;;;;;;;;;;9.91;46.03;101018.25;5072294;28;19924;-79
2021/04/06 12:25:54;;;;;;;;;;;;;;;9.97;46.27;101011.63;5055604;28;19924;-77
2021/04/06 12:28:19;;;;;;;;;;;;;;;10.05;44.72;101018.53;5075307;28;20268;-78
2021/04/06 12:30:44;;;;;;;;;;;;;;;9.79;43.72;101014.94;5075428;28;19925;-77
2021/04/06 12:33:10;;;;;;;;;;;;;;;9.79;43.86;101014.94;5074375;28;19951;-77
2021/04/06 12:35:35;;;;;;;;;;;;;;;9.71;44.84;101008.00;5070873;28;19920;-78
2021/04/06 12:38:00;;;;;;;;;;;;;;;9.80;44.68;100999.94;5074944;28;19924;-77
2021/04/06 12:40:28;;;;;;;;;;;;;;;9.82;45.62;101001.34;5053554;28;20368;-78
2021/04/06 12:42:53;;;;;;;;;;;;;;;9.92;44.82;100997.75;5065160;28;19916;-77
2021/04/06 12:45:19;;;;;;;;;;;;;;;9.93;44.35;101004.13;5058021;28;19921;-77
2021/04/06 12:47:44;;;;;;;;;;;;;;;9.98;44.77;100998.59;5072308;28;19920;-77